sensor_id;sensor_type;location;lat;lon;timestamp;P1;durP1;ratioP1;P2;durP2;ratioP2
35897;SDS011;21997;47.118;15.346;2023-01-10T00:00:10;0.20;;;0.20;;
35897;SDS011;21997;47.118;15.346;2023-01-10T00:06:22;0.23;;;0.20;;
35897;SDS011;21997;47.118;15.346;2023-01-10T00:09:18;1.13;;;0.30;;
35897;SDS011;21997;47.118;15.346;2023-01-10T00:16:23;0.23;;;0.20;;
35897;SDS011;21997;47.118;15.346;2023-01-10T00:21:57;0.10;;;0.10;;
35897;SDS011;21997;47.118;15.346;2023-01-10T00:25:14;0.37;;;0.20;;
35897;SDS011;21997;47.118;15.346;2023-01-10T00:27:39;0.20;;;0.20;;
35897;SDS011;21997;47.118;15.346;2023-01-10T00:30:10;0.10;;;0.10;;
35897;SDS011;21997;47.118;15.346;2023-01-10T00:32:51;0.10;;;0.10;;
35897;SDS011;21997;47.118;15.346;2023-01-10T00:35:21;0.10;;;0.10;;
35897;SDS011;21997;47.118;15.346;2023-01-10T00:37:46;0.97;;;0.20;;
35897;SDS011;21997;47.118;15.346;2023-01-10T00:43:02;0.10;;;0.10;;
35897;SDS011;21997;47.118;15.346;2023-01-10T00:45:50;0.20;;;0.20;;
35897;SDS011;21997;47.118;15.346;2023-01-10T00:51:19;0.10;;;0.10;;
35897;SDS011;21997;47.118;15.346;2023-01-10T00:56:54;0.10;;;0.10;;
35897;SDS011;21997;47.118;15.346;2023-01-10T00:59:40;0.10;;;0.10;;
35897;SDS011;21997;47.118;15.346;2023-01-10T01:02:17;0.10;;;0.10;;
35897;SDS011;21997;47.118;15.346;2023-01-10T01:04:45;0.10;;;0.10;;
35897;SDS011;21997;47.118;15.346;2023-01-10T01:10:35;0.20;;;0.20;;
35897;SDS011;21997;47.118;15.346;2023-01-10T01:13:11;0.10;;;0.10;;
35897;SDS011;21997;47.118;15.346;2023-01-10T01:16:18;0.40;;;0.20;;
35897;SDS011;21997;47.118;15.346;2023-01-10T01:18:46;0.10;;;0.10;;
35897;SDS011;21997;47.118;15.346;2023-01-10T01:21:21;1.30;;;0.10;;
35897;SDS011;21997;47.118;15.346;2023-01-10T01:24:23;0.73;;;0.20;;
35897;SDS011;21997;47.118;15.346;2023-01-10T01:26:42;0.10;;;0.10;;
35897;SDS011;21997;47.118;15.346;2023-01-10T01:29:07;0.60;;;0.20;;
35897;SDS011;21997;47.118;15.346;2023-01-10T01:31:36;0.20;;;0.20;;
35897;SDS011;21997;47.118;15.346;2023-01-10T01:34:07;0.10;;;0.10;;
35897;SDS011;21997;47.118;15.346;2023-01-10T01:36:32;0.10;;;0.10;;
35897;SDS011;21997;47.118;15.346;2023-01-10T01:38:58;0.10;;;0.10;;
35897;SDS011;21997;47.118;15.346;2023-01-10T01:41:28;0.10;;;0.10;;
35897;SDS011;21997;47.118;15.346;2023-01-10T01:44:16;0.10;;;0.10;;
35897;SDS011;21997;47.118;15.346;2023-01-10T01:46:43;0.10;;;0.10;;
35897;SDS011;21997;47.118;15.346;2023-01-10T01:49:24;0.23;;;0.20;;
35897;SDS011;21997;47.118;15.346;2023-01-10T01:51:50;0.20;;;0.20;;
35897;SDS011;21997;47.118;15.346;2023-01-10T01:54:21;0.10;;;0.10;;
35897;SDS011;21997;47.118;15.346;2023-01-10T01:56:48;0.10;;;0.10;;
35897;SDS011;21997;47.118;15.346;2023-01-10T02:01:46;0.20;;;0.20;;
35897;SDS011;21997;47.118;15.346;2023-01-10T02:04:19;0.20;;;0.20;;
35897;SDS011;21997;47.118;15.346;2023-01-10T02:06:47;0.20;;;0.20;;
35897;SDS011;21997;47.118;15.346;2023-01-10T02:09:21;0.10;;;0.10;;
35897;SDS011;21997;47.118;15.346;2023-01-10T02:11:49;0.10;;;0.10;;
35897;SDS011;21997;47.118;15.346;2023-01-10T02:14:15;0.13;;;0.13;;
35897;SDS011;21997;47.118;15.346;2023-01-10T02:16:41;0.10;;;0.10;;
35897;SDS011;21997;47.118;15.346;2023-01-10T02:19:08;0.10;;;0.10;;
35897;SDS011;21997;47.118;15.346;2023-01-10T02:35:11;0.10;;;0.10;;
35897;SDS011;21997;47.118;15.346;2023-01-10T02:40:38;0.13;;;0.13;;
35897;SDS011;21997;47.118;15.346;2023-01-10T02:43:11;0.20;;;0.20;;
35897;SDS011;21997;47.118;15.346;2023-01-10T02:45:53;0.30;;;0.20;;
35897;SDS011;21997;47.118;15.346;2023-01-10T02:48:19;0.60;;;0.20;;
35897;SDS011;21997;47.118;15.346;2023-01-10T02:50:48;0.50;;;0.50;;
35897;SDS011;21997;47.118;15.346;2023-01-10T02:56:40;0.10;;;0.10;;
35897;SDS011;21997;47.118;15.346;2023-01-10T03:07:35;0.20;;;0.10;;
35897;SDS011;21997;47.118;15.346;2023-01-10T03:17:00;0.30;;;0.27;;
35897;SDS011;21997;47.118;15.346;2023-01-10T03:19:30;0.23;;;0.20;;
35897;SDS011;21997;47.118;15.346;2023-01-10T03:21:58;0.17;;;0.17;;
35897;SDS011;21997;47.118;15.346;2023-01-10T03:24:39;0.20;;;0.20;;
35897;SDS011;21997;47.118;15.346;2023-01-10T03:27:15;0.47;;;0.33;;
35897;SDS011;21997;47.118;15.346;2023-01-10T03:32:42;0.20;;;0.20;;
35897;SDS011;21997;47.118;15.346;2023-01-10T03:35:08;0.27;;;0.10;;
35897;SDS011;21997;47.118;15.346;2023-01-10T03:37:41;0.10;;;0.10;;
35897;SDS011;21997;47.118;15.346;2023-01-10T03:40:29;0.10;;;0.10;;
35897;SDS011;21997;47.118;15.346;2023-01-10T03:43:10;0.17;;;0.17;;
35897;SDS011;21997;47.118;15.346;2023-01-10T03:45:57;0.20;;;0.13;;
35897;SDS011;21997;47.118;15.346;2023-01-10T03:48:27;0.10;;;0.10;;
35897;SDS011;21997;47.118;15.346;2023-01-10T03:50:56;0.87;;;0.30;;
35897;SDS011;21997;47.118;15.346;2023-01-10T03:53:23;0.10;;;0.10;;
35897;SDS011;21997;47.118;15.346;2023-01-10T03:55:48;1.70;;;0.10;;
35897;SDS011;21997;47.118;15.346;2023-01-10T03:58:14;0.30;;;0.30;;
35897;SDS011;21997;47.118;15.346;2023-01-10T04:00:41;0.10;;;0.10;;
35897;SDS011;21997;47.118;15.346;2023-01-10T04:03:06;0.10;;;0.10;;
35897;SDS011;21997;47.118;15.346;2023-01-10T04:05:33;0.10;;;0.10;;
35897;SDS011;21997;47.118;15.346;2023-01-10T04:07:59;0.10;;;0.10;;
35897;SDS011;21997;47.118;15.346;2023-01-10T04:10:26;0.10;;;0.10;;
35897;SDS011;21997;47.118;15.346;2023-01-10T04:12:53;0.10;;;0.10;;
35897;SDS011;21997;47.118;15.346;2023-01-10T04:15:18;0.20;;;0.20;;
35897;SDS011;21997;47.118;15.346;2023-01-10T04:17:44;0.20;;;0.20;;
35897;SDS011;21997;47.118;15.346;2023-01-10T04:20:09;0.70;;;0.17;;
35897;SDS011;21997;47.118;15.346;2023-01-10T04:22:35;0.10;;;0.10;;
35897;SDS011;21997;47.118;15.346;2023-01-10T04:25:01;0.10;;;0.10;;
35897;SDS011;21997;47.118;15.346;2023-01-10T04:27:26;0.10;;;0.10;;
35897;SDS011;21997;47.118;15.346;2023-01-10T04:29:51;0.17;;;0.17;;
35897;SDS011;21997;47.118;15.346;2023-01-10T04:32:17;0.20;;;0.20;;
35897;SDS011;21997;47.118;15.346;2023-01-10T04:34:42;0.10;;;0.10;;
35897;SDS011;21997;47.118;15.346;2023-01-10T04:37:08;0.27;;;0.10;;
35897;SDS011;21997;47.118;15.346;2023-01-10T04:39:33;0.10;;;0.10;;
35897;SDS011;21997;47.118;15.346;2023-01-10T04:41:59;0.10;;;0.10;;
35897;SDS011;21997;47.118;15.346;2023-01-10T04:44:24;0.10;;;0.10;;
35897;SDS011;21997;47.118;15.346;2023-01-10T04:46:49;0.10;;;0.10;;
35897;SDS011;21997;47.118;15.346;2023-01-10T04:49:15;0.10;;;0.10;;
35897;SDS011;21997;47.118;15.346;2023-01-10T04:51:40;0.10;;;0.10;;
35897;SDS011;21997;47.118;15.346;2023-01-10T04:54:06;0.20;;;0.20;;
35897;SDS011;21997;47.118;15.346;2023-01-10T04:56:32;0.10;;;0.10;;
35897;SDS011;21997;47.118;15.346;2023-01-10T04:58:57;0.10;;;0.10;;
35897;SDS011;21997;47.118;15.346;2023-01-10T05:01:23;1.07;;;0.10;;
35897;SDS011;21997;47.118;15.346;2023-01-10T05:03:50;0.23;;;0.20;;
35897;SDS011;21997;47.118;15.346;2023-01-10T05:06:17;0.10;;;0.10;;
35897;SDS011;21997;47.118;15.346;2023-01-10T05:08:43;0.27;;;0.20;;
35897;SDS011;21997;47.118;15.346;2023-01-10T05:11:11;0.90;;;0.40;;
35897;SDS011;21997;47.118;15.346;2023-01-10T05:13:37;0.00;;;0.00;;
35897;SDS011;21997;47.118;15.346;2023-01-10T05:16:02;0.10;;;0.10;;
35897;SDS011;21997;47.118;15.346;2023-01-10T05:18:28;0.10;;;0.10;;
35897;SDS011;21997;47.118;15.346;2023-01-10T05:21:04;0.30;;;0.23;;
35897;SDS011;21997;47.118;15.346;2023-01-10T05:23:31;3.23;;;0.30;;
35897;SDS011;21997;47.118;15.346;2023-01-10T05:25:57;0.20;;;0.13;;
35897;SDS011;21997;47.118;15.346;2023-01-10T05:28:29;0.20;;;0.20;;
35897;SDS011;21997;47.118;15.346;2023-01-10T05:30:55;2.73;;;0.13;;
35897;SDS011;21997;47.118;15.346;2023-01-10T05:33:20;0.13;;;0.13;;
35897;SDS011;21997;47.118;15.346;2023-01-10T05:35:46;0.20;;;0.20;;
35897;SDS011;21997;47.118;15.346;2023-01-10T05:38:11;0.30;;;0.20;;
35897;SDS011;21997;47.118;15.346;2023-01-10T05:40:37;0.10;;;0.10;;
35897;SDS011;21997;47.118;15.346;2023-01-10T05:43:02;0.20;;;0.20;;
35897;SDS011;21997;47.118;15.346;2023-01-10T05:45:28;0.27;;;0.20;;
35897;SDS011;21997;47.118;15.346;2023-01-10T05:47:53;4.40;;;2.00;;
35897;SDS011;21997;47.118;15.346;2023-01-10T05:50:18;5.13;;;2.40;;
35897;SDS011;21997;47.118;15.346;2023-01-10T05:52:44;3.17;;;1.57;;
35897;SDS011;21997;47.118;15.346;2023-01-10T05:55:09;6.07;;;2.00;;
35897;SDS011;21997;47.118;15.346;2023-01-10T05:57:35;16.03;;;7.63;;
35897;SDS011;21997;47.118;15.346;2023-01-10T06:00:02;20.23;;;9.03;;
35897;SDS011;21997;47.118;15.346;2023-01-10T06:02:29;23.77;;;10.60;;
35897;SDS011;21997;47.118;15.346;2023-01-10T06:04:54;17.77;;;7.60;;
35897;SDS011;21997;47.118;15.346;2023-01-10T06:07:20;1.70;;;0.77;;
35897;SDS011;21997;47.118;15.346;2023-01-10T06:09:46;4.63;;;3.13;;
35897;SDS011;21997;47.118;15.346;2023-01-10T06:12:11;3.10;;;1.90;;
35897;SDS011;21997;47.118;15.346;2023-01-10T06:14:37;2.30;;;1.30;;
35897;SDS011;21997;47.118;15.346;2023-01-10T06:17:02;0.30;;;0.30;;
35897;SDS011;21997;47.118;15.346;2023-01-10T06:19:32;1.13;;;0.33;;
35897;SDS011;21997;47.118;15.346;2023-01-10T06:21:57;0.10;;;0.10;;
35897;SDS011;21997;47.118;15.346;2023-01-10T06:24:23;0.97;;;0.50;;
35897;SDS011;21997;47.118;15.346;2023-01-10T06:26:48;1.70;;;0.63;;
35897;SDS011;21997;47.118;15.346;2023-01-10T06:29:14;17.33;;;7.70;;
35897;SDS011;21997;47.118;15.346;2023-01-10T06:31:40;7.83;;;3.93;;
35897;SDS011;21997;47.118;15.346;2023-01-10T06:34:05;21.77;;;11.93;;
35897;SDS011;21997;47.118;15.346;2023-01-10T06:36:31;21.30;;;11.47;;
35897;SDS011;21997;47.118;15.346;2023-01-10T06:38:56;1.10;;;1.00;;
35897;SDS011;21997;47.118;15.346;2023-01-10T06:41:21;0.87;;;0.40;;
35897;SDS011;21997;47.118;15.346;2023-01-10T06:43:47;3.53;;;0.27;;
35897;SDS011;21997;47.118;15.346;2023-01-10T06:46:16;0.27;;;0.20;;
35897;SDS011;21997;47.118;15.346;2023-01-10T06:48:42;0.30;;;0.30;;
35897;SDS011;21997;47.118;15.346;2023-01-10T06:51:09;0.17;;;0.17;;
35897;SDS011;21997;47.118;15.346;2023-01-10T06:53:35;0.20;;;0.20;;
35897;SDS011;21997;47.118;15.346;2023-01-10T06:56:00;0.33;;;0.20;;
35897;SDS011;21997;47.118;15.346;2023-01-10T06:58:27;1.77;;;0.20;;
35897;SDS011;21997;47.118;15.346;2023-01-10T07:00:53;0.30;;;0.30;;
35897;SDS011;21997;47.118;15.346;2023-01-10T07:03:18;1.00;;;0.70;;
35897;SDS011;21997;47.118;15.346;2023-01-10T07:05:44;3.43;;;0.90;;
35897;SDS011;21997;47.118;15.346;2023-01-10T07:08:09;1.23;;;0.93;;
35897;SDS011;21997;47.118;15.346;2023-01-10T07:10:35;1.00;;;0.90;;
35897;SDS011;21997;47.118;15.346;2023-01-10T07:13:00;2.30;;;0.80;;
35897;SDS011;21997;47.118;15.346;2023-01-10T07:15:26;0.40;;;0.40;;
35897;SDS011;21997;47.118;15.346;2023-01-10T07:17:55;0.97;;;0.37;;
35897;SDS011;21997;47.118;15.346;2023-01-10T07:20:22;2.80;;;1.23;;
35897;SDS011;21997;47.118;15.346;2023-01-10T07:22:54;1.93;;;0.53;;
35897;SDS011;21997;47.118;15.346;2023-01-10T07:25:20;1.17;;;0.20;;
35897;SDS011;21997;47.118;15.346;2023-01-10T07:27:46;0.30;;;0.23;;
35897;SDS011;21997;47.118;15.346;2023-01-10T07:30:11;0.47;;;0.40;;
35897;SDS011;21997;47.118;15.346;2023-01-10T07:32:37;0.60;;;0.60;;
35897;SDS011;21997;47.118;15.346;2023-01-10T07:35:02;0.20;;;0.20;;
35897;SDS011;21997;47.118;15.346;2023-01-10T07:37:28;0.30;;;0.20;;
35897;SDS011;21997;47.118;15.346;2023-01-10T07:39:53;0.20;;;0.20;;
35897;SDS011;21997;47.118;15.346;2023-01-10T07:42:20;0.43;;;0.30;;
35897;SDS011;21997;47.118;15.346;2023-01-10T07:44:45;1.43;;;0.40;;
35897;SDS011;21997;47.118;15.346;2023-01-10T07:47:10;1.00;;;0.90;;
35897;SDS011;21997;47.118;15.346;2023-01-10T07:49:36;0.40;;;0.40;;
35897;SDS011;21997;47.118;15.346;2023-01-10T07:52:01;0.40;;;0.30;;
35897;SDS011;21997;47.118;15.346;2023-01-10T07:54:27;0.97;;;0.73;;
35897;SDS011;21997;47.118;15.346;2023-01-10T07:56:52;1.53;;;1.20;;
35897;SDS011;21997;47.118;15.346;2023-01-10T07:59:18;1.53;;;0.90;;
35897;SDS011;21997;47.118;15.346;2023-01-10T08:01:43;0.90;;;0.70;;
35897;SDS011;21997;47.118;15.346;2023-01-10T08:04:09;0.97;;;0.53;;
35897;SDS011;21997;47.118;15.346;2023-01-10T08:06:34;0.40;;;0.40;;
35897;SDS011;21997;47.118;15.346;2023-01-10T08:09:00;0.40;;;0.37;;
35897;SDS011;21997;47.118;15.346;2023-01-10T08:11:27;0.97;;;0.77;;
35897;SDS011;21997;47.118;15.346;2023-01-10T08:13:53;2.43;;;1.07;;
35897;SDS011;21997;47.118;15.346;2023-01-10T08:16:18;0.87;;;0.80;;
35897;SDS011;21997;47.118;15.346;2023-01-10T08:18:44;2.33;;;0.30;;
35897;SDS011;21997;47.118;15.346;2023-01-10T08:21:10;2.67;;;1.70;;
35897;SDS011;21997;47.118;15.346;2023-01-10T08:23:35;3.33;;;1.87;;
35897;SDS011;21997;47.118;15.346;2023-01-10T08:26:01;0.87;;;0.70;;
35897;SDS011;21997;47.118;15.346;2023-01-10T08:28:26;0.73;;;0.40;;
35897;SDS011;21997;47.118;15.346;2023-01-10T08:30:52;1.10;;;0.60;;
35897;SDS011;21997;47.118;15.346;2023-01-10T08:33:20;1.00;;;0.70;;
35897;SDS011;21997;47.118;15.346;2023-01-10T08:35:47;0.73;;;0.47;;
35897;SDS011;21997;47.118;15.346;2023-01-10T08:38:13;1.27;;;0.60;;
35897;SDS011;21997;47.118;15.346;2023-01-10T08:40:38;0.53;;;0.10;;
35897;SDS011;21997;47.118;15.346;2023-01-10T08:43:05;0.40;;;0.40;;
35897;SDS011;21997;47.118;15.346;2023-01-10T08:45:32;1.00;;;0.90;;
35897;SDS011;21997;47.118;15.346;2023-01-10T08:47:58;6.83;;;3.80;;
35897;SDS011;21997;47.118;15.346;2023-01-10T08:50:23;3.83;;;1.47;;
35897;SDS011;21997;47.118;15.346;2023-01-10T08:52:49;2.10;;;1.40;;
35897;SDS011;21997;47.118;15.346;2023-01-10T08:55:15;0.80;;;0.67;;
35897;SDS011;21997;47.118;15.346;2023-01-10T08:57:41;1.17;;;0.87;;
35897;SDS011;21997;47.118;15.346;2023-01-10T09:00:07;0.93;;;0.50;;
35897;SDS011;21997;47.118;15.346;2023-01-10T09:02:33;0.77;;;0.30;;
35897;SDS011;21997;47.118;15.346;2023-01-10T09:04:59;1.13;;;0.33;;
35897;SDS011;21997;47.118;15.346;2023-01-10T09:07:24;0.10;;;0.10;;
35897;SDS011;21997;47.118;15.346;2023-01-10T09:09:49;0.27;;;0.20;;
35897;SDS011;21997;47.118;15.346;2023-01-10T09:12:15;0.70;;;0.40;;
35897;SDS011;21997;47.118;15.346;2023-01-10T09:14:59;2.37;;;0.20;;
35897;SDS011;21997;47.118;15.346;2023-01-10T09:17:24;0.10;;;0.10;;
35897;SDS011;21997;47.118;15.346;2023-01-10T09:19:49;1.73;;;0.20;;
35897;SDS011;21997;47.118;15.346;2023-01-10T09:22:16;0.40;;;0.37;;
35897;SDS011;21997;47.118;15.346;2023-01-10T09:24:41;0.30;;;0.30;;
35897;SDS011;21997;47.118;15.346;2023-01-10T09:27:08;0.70;;;0.50;;
35897;SDS011;21997;47.118;15.346;2023-01-10T09:29:34;0.77;;;0.40;;
35897;SDS011;21997;47.118;15.346;2023-01-10T09:31:59;0.90;;;0.57;;
35897;SDS011;21997;47.118;15.346;2023-01-10T09:34:25;0.30;;;0.27;;
35897;SDS011;21997;47.118;15.346;2023-01-10T09:36:51;1.70;;;0.30;;
35897;SDS011;21997;47.118;15.346;2023-01-10T09:39:17;2.50;;;1.23;;
35897;SDS011;21997;47.118;15.346;2023-01-10T09:42:17;2.03;;;1.30;;
35897;SDS011;21997;47.118;15.346;2023-01-10T09:52:25;0.70;;;0.50;;
35897;SDS011;21997;47.118;15.346;2023-01-10T09:54:53;0.30;;;0.30;;
35897;SDS011;21997;47.118;15.346;2023-01-10T09:57:20;0.33;;;0.10;;
35897;SDS011;21997;47.118;15.346;2023-01-10T09:59:46;0.20;;;0.20;;
35897;SDS011;21997;47.118;15.346;2023-01-10T10:02:29;1.80;;;0.20;;
35897;SDS011;21997;47.118;15.346;2023-01-10T10:07:28;0.20;;;0.10;;
35897;SDS011;21997;47.118;15.346;2023-01-10T10:09:54;0.87;;;0.40;;
35897;SDS011;21997;47.118;15.346;2023-01-10T10:26:19;1.03;;;0.20;;
35897;SDS011;21997;47.118;15.346;2023-01-10T10:31:20;1.50;;;0.40;;
35897;SDS011;21997;47.118;15.346;2023-01-10T10:33:53;0.43;;;0.20;;
35897;SDS011;21997;47.118;15.346;2023-01-10T10:36:42;0.80;;;0.50;;
35897;SDS011;21997;47.118;15.346;2023-01-10T10:39:12;0.20;;;0.20;;
35897;SDS011;21997;47.118;15.346;2023-01-10T10:41:40;0.10;;;0.10;;
35897;SDS011;21997;47.118;15.346;2023-01-10T10:44:23;0.10;;;0.10;;
35897;SDS011;21997;47.118;15.346;2023-01-10T10:46:51;0.83;;;0.20;;
35897;SDS011;21997;47.118;15.346;2023-01-10T10:49:17;2.00;;;0.20;;
35897;SDS011;21997;47.118;15.346;2023-01-10T10:51:50;0.27;;;0.10;;
35897;SDS011;21997;47.118;15.346;2023-01-10T10:54:17;0.30;;;0.30;;
35897;SDS011;21997;47.118;15.346;2023-01-10T10:56:42;0.20;;;0.20;;
35897;SDS011;21997;47.118;15.346;2023-01-10T10:59:09;2.13;;;0.30;;
35897;SDS011;21997;47.118;15.346;2023-01-10T11:01:36;1.70;;;0.33;;
35897;SDS011;21997;47.118;15.346;2023-01-10T11:04:05;0.30;;;0.30;;
35897;SDS011;21997;47.118;15.346;2023-01-10T11:06:34;0.20;;;0.20;;
35897;SDS011;21997;47.118;15.346;2023-01-10T11:09:01;0.17;;;0.17;;
35897;SDS011;21997;47.118;15.346;2023-01-10T11:11:29;0.87;;;0.40;;
35897;SDS011;21997;47.118;15.346;2023-01-10T11:14:07;0.60;;;0.57;;
35897;SDS011;21997;47.118;15.346;2023-01-10T11:19:25;0.10;;;0.10;;
35897;SDS011;21997;47.118;15.346;2023-01-10T11:21:58;0.13;;;0.13;;
35897;SDS011;21997;47.118;15.346;2023-01-10T11:24:49;1.10;;;0.37;;
35897;SDS011;21997;47.118;15.346;2023-01-10T11:27:18;0.30;;;0.30;;
35897;SDS011;21997;47.118;15.346;2023-01-10T11:29:49;0.10;;;0.10;;
35897;SDS011;21997;47.118;15.346;2023-01-10T11:32:17;0.10;;;0.10;;
35897;SDS011;21997;47.118;15.346;2023-01-10T11:34:51;0.03;;;0.03;;
35897;SDS011;21997;47.118;15.346;2023-01-10T11:39:56;0.40;;;0.40;;
35897;SDS011;21997;47.118;15.346;2023-01-10T11:42:37;0.17;;;0.17;;
35897;SDS011;21997;47.118;15.346;2023-01-10T11:50:36;1.10;;;0.50;;
35897;SDS011;21997;47.118;15.346;2023-01-10T11:53:04;1.20;;;0.20;;
35897;SDS011;21997;47.118;15.346;2023-01-10T11:55:30;2.13;;;0.30;;
35897;SDS011;21997;47.118;15.346;2023-01-10T11:58:05;0.47;;;0.40;;
35897;SDS011;21997;47.118;15.346;2023-01-10T12:00:43;0.90;;;0.30;;
35897;SDS011;21997;47.118;15.346;2023-01-10T12:03:26;0.20;;;0.20;;
35897;SDS011;21997;47.118;15.346;2023-01-10T12:05:56;1.23;;;0.60;;
35897;SDS011;21997;47.118;15.346;2023-01-10T12:08:30;0.30;;;0.23;;
35897;SDS011;21997;47.118;15.346;2023-01-10T12:10:57;2.83;;;0.33;;
35897;SDS011;21997;47.118;15.346;2023-01-10T12:13:26;0.83;;;0.53;;
35897;SDS011;21997;47.118;15.346;2023-01-10T12:15:52;0.10;;;0.10;;
35897;SDS011;21997;47.118;15.346;2023-01-10T12:18:38;1.90;;;0.20;;
35897;SDS011;21997;47.118;15.346;2023-01-10T12:21:03;0.30;;;0.30;;
35897;SDS011;21997;47.118;15.346;2023-01-10T12:23:29;0.43;;;0.30;;
35897;SDS011;21997;47.118;15.346;2023-01-10T12:25:58;0.30;;;0.20;;
35897;SDS011;21997;47.118;15.346;2023-01-10T12:28:26;0.17;;;0.10;;
35897;SDS011;21997;47.118;15.346;2023-01-10T12:30:53;1.45;;;0.10;;
35897;SDS011;21997;47.118;15.346;2023-01-10T12:33:24;0.00;;;0.00;;
35897;SDS011;21997;47.118;15.346;2023-01-10T12:36:02;0.40;;;0.20;;
35897;SDS011;21997;47.118;15.346;2023-01-10T12:38:37;0.32;;;0.20;;
35897;SDS011;21997;47.118;15.346;2023-01-10T12:44:40;3.92;;;1.08;;
35897;SDS011;21997;47.118;15.346;2023-01-10T12:50:09;1.45;;;0.73;;
35897;SDS011;21997;47.118;15.346;2023-01-10T12:55:26;0.52;;;0.20;;
35897;SDS011;21997;47.118;15.346;2023-01-10T12:57:55;0.30;;;0.20;;
35897;SDS011;21997;47.118;15.346;2023-01-10T13:00:27;0.35;;;0.17;;
35897;SDS011;21997;47.118;15.346;2023-01-10T13:02:55;0.55;;;0.10;;
35897;SDS011;21997;47.118;15.346;2023-01-10T13:05:23;0.20;;;0.10;;
35897;SDS011;21997;47.118;15.346;2023-01-10T13:07:50;0.10;;;0.10;;
35897;SDS011;21997;47.118;15.346;2023-01-10T13:10:22;0.10;;;0.05;;
35897;SDS011;21997;47.118;15.346;2023-01-10T13:13:12;0.10;;;0.10;;
35897;SDS011;21997;47.118;15.346;2023-01-10T13:15:51;0.00;;;0.00;;
35897;SDS011;21997;47.118;15.346;2023-01-10T13:18:18;0.52;;;0.20;;
35897;SDS011;21997;47.118;15.346;2023-01-10T13:20:55;0.68;;;0.13;;
35897;SDS011;21997;47.118;15.346;2023-01-10T13:23:32;0.10;;;0.10;;
35897;SDS011;21997;47.118;15.346;2023-01-10T13:26:12;1.05;;;0.20;;
35897;SDS011;21997;47.118;15.346;2023-01-10T13:28:38;0.10;;;0.10;;
35897;SDS011;21997;47.118;15.346;2023-01-10T13:31:50;0.03;;;0.03;;
35897;SDS011;21997;47.118;15.346;2023-01-10T13:36:44;0.40;;;0.20;;
35897;SDS011;21997;47.118;15.346;2023-01-10T13:39:34;0.13;;;0.13;;
35897;SDS011;21997;47.118;15.346;2023-01-10T13:48:14;0.80;;;0.30;;
35897;SDS011;21997;47.118;15.346;2023-01-10T13:52:52;0.20;;;0.20;;
35897;SDS011;21997;47.118;15.346;2023-01-10T13:55:19;1.30;;;0.60;;
35897;SDS011;21997;47.118;15.346;2023-01-10T14:06:02;0.50;;;0.40;;
35897;SDS011;21997;47.118;15.346;2023-01-10T14:08:30;0.40;;;0.30;;
35897;SDS011;21997;47.118;15.346;2023-01-10T14:11:08;0.30;;;0.20;;
35897;SDS011;21997;47.118;15.346;2023-01-10T14:13:35;0.30;;;0.30;;
35897;SDS011;21997;47.118;15.346;2023-01-10T14:16:00;0.53;;;0.40;;
35897;SDS011;21997;47.118;15.346;2023-01-10T14:18:36;0.60;;;0.60;;
35897;SDS011;21997;47.118;15.346;2023-01-10T14:21:06;0.33;;;0.33;;
35897;SDS011;21997;47.118;15.346;2023-01-10T14:26:02;0.20;;;0.20;;
35897;SDS011;21997;47.118;15.346;2023-01-10T14:28:29;0.87;;;0.50;;
35897;SDS011;21997;47.118;15.346;2023-01-10T14:33:36;0.30;;;0.30;;
35897;SDS011;21997;47.118;15.346;2023-01-10T14:36:03;14.60;;;0.83;;
35897;SDS011;21997;47.118;15.346;2023-01-10T14:38:34;0.30;;;0.30;;
35897;SDS011;21997;47.118;15.346;2023-01-10T14:41:04;1.17;;;0.40;;
35897;SDS011;21997;47.118;15.346;2023-01-10T14:43:38;0.93;;;0.50;;
35897;SDS011;21997;47.118;15.346;2023-01-10T14:46:11;0.20;;;0.20;;
35897;SDS011;21997;47.118;15.346;2023-01-10T14:48:40;1.50;;;0.93;;
35897;SDS011;21997;47.118;15.346;2023-01-10T14:51:24;1.70;;;0.90;;
35897;SDS011;21997;47.118;15.346;2023-01-10T14:56:46;0.77;;;0.53;;
35897;SDS011;21997;47.118;15.346;2023-01-10T14:59:23;2.10;;;1.70;;
35897;SDS011;21997;47.118;15.346;2023-01-10T15:01:50;1.13;;;0.90;;
35897;SDS011;21997;47.118;15.346;2023-01-10T15:04:18;1.20;;;0.70;;
35897;SDS011;21997;47.118;15.346;2023-01-10T15:09:36;0.70;;;0.40;;
35897;SDS011;21997;47.118;15.346;2023-01-10T15:12:03;1.00;;;0.67;;
35897;SDS011;21997;47.118;15.346;2023-01-10T15:14:30;1.37;;;0.60;;
35897;SDS011;21997;47.118;15.346;2023-01-10T15:16:57;2.23;;;1.00;;
35897;SDS011;21997;47.118;15.346;2023-01-10T15:19:26;1.20;;;1.10;;
35897;SDS011;21997;47.118;15.346;2023-01-10T15:21:55;1.57;;;1.30;;
35897;SDS011;21997;47.118;15.346;2023-01-10T15:26:52;1.33;;;1.10;;
35897;SDS011;21997;47.118;15.346;2023-01-10T15:29:22;1.57;;;0.93;;
35897;SDS011;21997;47.118;15.346;2023-01-10T15:31:48;1.73;;;0.83;;
35897;SDS011;21997;47.118;15.346;2023-01-10T15:34:16;2.97;;;0.97;;
35897;SDS011;21997;47.118;15.346;2023-01-10T15:36:45;1.60;;;0.70;;
35897;SDS011;21997;47.118;15.346;2023-01-10T15:39:20;0.63;;;0.60;;
35897;SDS011;21997;47.118;15.346;2023-01-10T15:41:47;1.10;;;1.00;;
35897;SDS011;21997;47.118;15.346;2023-01-10T15:44:33;4.10;;;1.50;;
35897;SDS011;21997;47.118;15.346;2023-01-10T15:46:59;2.37;;;1.20;;
35897;SDS011;21997;47.118;15.346;2023-01-10T15:49:24;1.17;;;0.93;;
35897;SDS011;21997;47.118;15.346;2023-01-10T15:51:50;0.70;;;0.50;;
35897;SDS011;21997;47.118;15.346;2023-01-10T15:56:49;0.50;;;0.50;;
35897;SDS011;21997;47.118;15.346;2023-01-10T15:59:26;0.60;;;0.60;;
35897;SDS011;21997;47.118;15.346;2023-01-10T16:04:32;5.40;;;0.70;;
35897;SDS011;21997;47.118;15.346;2023-01-10T16:07:11;0.93;;;0.60;;
35897;SDS011;21997;47.118;15.346;2023-01-10T16:09:40;1.13;;;0.33;;
35897;SDS011;21997;47.118;15.346;2023-01-10T16:12:21;0.50;;;0.40;;
35897;SDS011;21997;47.118;15.346;2023-01-10T16:15:17;0.60;;;0.50;;
35897;SDS011;21997;47.118;15.346;2023-01-10T16:17:45;3.23;;;0.80;;
35897;SDS011;21997;47.118;15.346;2023-01-10T16:20:12;0.20;;;0.20;;
35897;SDS011;21997;47.118;15.346;2023-01-10T16:22:41;0.33;;;0.33;;
35897;SDS011;21997;47.118;15.346;2023-01-10T16:25:11;0.87;;;0.80;;
35897;SDS011;21997;47.118;15.346;2023-01-10T16:27:38;7.50;;;5.10;;
35897;SDS011;21997;47.118;15.346;2023-01-10T16:30:03;3.27;;;2.07;;
35897;SDS011;21997;47.118;15.346;2023-01-10T16:32:29;1.23;;;0.80;;
35897;SDS011;21997;47.118;15.346;2023-01-10T16:34:59;1.03;;;0.60;;
35897;SDS011;21997;47.118;15.346;2023-01-10T16:37:26;2.90;;;2.07;;
35897;SDS011;21997;47.118;15.346;2023-01-10T16:39:52;8.70;;;5.57;;
35897;SDS011;21997;47.118;15.346;2023-01-10T16:42:17;3.47;;;2.63;;
35897;SDS011;21997;47.118;15.346;2023-01-10T16:45:01;1.10;;;1.00;;
35897;SDS011;21997;47.118;15.346;2023-01-10T16:47:26;1.03;;;0.53;;
35897;SDS011;21997;47.118;15.346;2023-01-10T16:49:52;1.30;;;0.57;;
35897;SDS011;21997;47.118;15.346;2023-01-10T16:52:17;0.63;;;0.50;;
35897;SDS011;21997;47.118;15.346;2023-01-10T16:54:42;2.13;;;1.43;;
35897;SDS011;21997;47.118;15.346;2023-01-10T16:57:08;1.20;;;1.00;;
35897;SDS011;21997;47.118;15.346;2023-01-10T16:59:33;0.73;;;0.43;;
35897;SDS011;21997;47.118;15.346;2023-01-10T17:01:58;0.73;;;0.60;;
35897;SDS011;21997;47.118;15.346;2023-01-10T17:04:25;0.80;;;0.70;;
35897;SDS011;21997;47.118;15.346;2023-01-10T17:06:52;0.60;;;0.50;;
35897;SDS011;21997;47.118;15.346;2023-01-10T17:09:28;1.40;;;0.97;;
35897;SDS011;21997;47.118;15.346;2023-01-10T17:11:55;1.47;;;0.83;;
35897;SDS011;21997;47.118;15.346;2023-01-10T17:14:35;0.90;;;0.70;;